Time;durP1;ratioP1;P1;durP2;ratioP2;P2;SDS_P1;SDS_P2;PMS_P1;PMS_P2;Temp;Humidity;BMP_temperature;BMP_pressure;BME280_temperature;BME280_humidity;BME280_pressure;Samples;Min_cycle;Max_cycle;Signal;HPM_P1;HPM_P2
2021/01/27 00:00:16;;;;;;;6.03;4.50;;;;;;;;;;5052608;28;20222;-78
2021/01/27 00:02:42;;;;;;;5.57;5.03;;;;;;;;;;5052760;28;20164;-79
2021/01/27 00:08:12;;;;;;;5.30;4.80;;;;;;;;;;5052618;28;20171;-78
2021/01/27 00:10:39;;;;;;;9.82;5.70;;;;;;;;;;5052597;28;20223;-79
2021/01/27 00:13:06;;;;;;;7.50;4.63;;;;;;;;;;5052579;28;20176;-80
2021/01/27 00:15:36;;;;;;;7.28;4.68;;;;;;;;;;5052607;28;20259;-78
2021/01/27 00:18:02;;;;;;;8.60;5.13;;;;;;;;;;5052450;28;20247;-78
2021/01/27 00:23:35;;;;;;;6.22;5.15;;;;;;;;;;5052604;28;20198;-79
2021/01/27 00:26:01;;;;;;;5.50;4.55;;;;;;;;;;5052324;28;20251;-79
2021/01/27 00:28:27;;;;;;;6.80;4.53;;;;;;;;;;5052660;28;20192;-78
2021/01/27 00:30:53;;;;;;;9.27;5.10;;;;;;;;;;5052374;28;20709;-81
2021/01/27 00:33:19;;;;;;;4.60;3.80;;;;;;;;;;5052381;28;20169;-80
2021/01/27 00:35:49;;;;;;;5.13;4.18;;;;;;;;;;5052583;28;20167;-79
2021/01/27 00:38:16;;;;;;;7.50;5.18;;;;;;;;;;5052553;28;20472;-78
2021/01/27 00:40:46;;;;;;;4.88;4.45;;;;;;;;;;5052075;28;20172;-79
2021/01/27 00:43:12;;;;;;;10.45;4.80;;;;;;;;;;5052458;28;20172;-77
2021/01/27 00:45:38;;;;;;;7.95;6.15;;;;;;;;;;5052118;28;20301;-78
2021/01/27 00:48:04;;;;;;;8.20;5.00;;;;;;;;;;5052255;28;20175;-77
2021/01/27 00:53:33;;;;;;;10.85;4.85;;;;;;;;;;5053800;28;20250;-79
2021/01/27 00:55:59;;;;;;;6.80;4.73;;;;;;;;;;5056008;28;20581;-77
2021/01/27 00:58:25;;;;;;;8.68;5.68;;;;;;;;;;5056183;28;20422;-78
2021/01/27 01:00:51;;;;;;;6.50;4.10;;;;;;;;;;5056221;28;20176;-77
2021/01/27 01:03:17;;;;;;;5.60;4.93;;;;;;;;;;5055978;28;20416;-77
2021/01/27 01:08:47;;;;;;;6.90;4.45;;;;;;;;;;5056262;28;20237;-78
2021/01/27 01:11:13;;;;;;;7.10;4.77;;;;;;;;;;5055795;28;20337;-78
2021/01/27 01:13:39;;;;;;;5.00;3.85;;;;;;;;;;5056036;28;20510;-78
2021/01/27 01:16:05;;;;;;;7.20;4.70;;;;;;;;;;5055892;28;20533;-78
2021/01/27 01:18:31;;;;;;;9.90;4.60;;;;;;;;;;5055808;28;20464;-77
2021/01/27 01:24:00;;;;;;;4.93;3.63;;;;;;;;;;5056004;28;20174;-79
2021/01/27 01:26:26;;;;;;;8.03;4.47;;;;;;;;;;5055559;28;20600;-78
2021/01/27 01:28:52;;;;;;;9.07;4.87;;;;;;;;;;5055446;28;20403;-76
2021/01/27 01:31:18;;;;;;;5.05;4.40;;;;;;;;;;5054771;28;20748;-77
2021/01/27 01:33:44;;;;;;;6.50;4.43;;;;;;;;;;5055510;28;20187;-77
2021/01/27 01:36:10;;;;;;;4.30;3.50;;;;;;;;;;5055437;28;20407;-79
2021/01/27 01:38:36;;;;;;;6.73;4.87;;;;;;;;;;5055403;28;20450;-80
2021/01/27 01:41:04;;;;;;;5.40;4.10;;;;;;;;;;5055401;28;20419;-78
2021/01/27 01:43:31;;;;;;;4.40;3.97;;;;;;;;;;5055354;28;20414;-78
2021/01/27 01:45:59;;;;;;;8.05;3.65;;;;;;;;;;5055373;28;20163;-79
2021/01/27 01:48:25;;;;;;;5.97;4.68;;;;;;;;;;5037637;28;20177;-78
2021/01/27 01:54:00;;;;;;;4.63;3.88;;;;;;;;;;5055360;28;20258;-78
2021/01/27 01:56:28;;;;;;;6.90;4.55;;;;;;;;;;5055232;28;20215;-78
2021/01/27 01:58:55;;;;;;;4.32;3.70;;;;;;;;;;5054950;28;20606;-78
2021/01/27 02:01:22;;;;;;;6.82;4.55;;;;;;;;;;5055065;28;20256;-78
2021/01/27 02:03:49;;;;;;;10.23;4.30;;;;;;;;;;5054507;28;20161;-78
2021/01/27 02:09:18;;;;;;;6.28;4.70;;;;;;;;;;5054943;28;20650;-78
2021/01/27 02:11:51;;;;;;;6.10;5.07;;;;;;;;;;5054605;28;20224;-78
2021/01/27 02:14:25;;;;;;;5.00;4.15;;;;;;;;;;5054719;28;20441;-78
2021/01/27 02:17:26;;;;;;;6.47;4.50;;;;;;;;;;5056691;28;20553;-78
2021/01/27 02:19:55;;;;;;;7.28;4.38;;;;;;;;;;4957040;29;20231;-78
2021/01/27 02:22:39;;;;;;;5.55;4.15;;;;;;;;;;5036793;28;20230;-78
2021/01/27 02:25:14;;;;;;;7.47;4.60;;;;;;;;;;5054406;28;20636;-78
2021/01/27 02:27:54;;;;;;;8.60;5.22;;;;;;;;;;5054502;28;20218;-79
2021/01/27 02:30:20;;;;;;;7.60;4.30;;;;;;;;;;5054530;28;20530;-78
2021/01/27 02:32:46;;;;;;;7.10;4.80;;;;;;;;;;5054548;28;20246;-78
2021/01/27 02:35:21;;;;;;;7.10;4.97;;;;;;;;;;5054543;28;20992;-75
2021/01/27 02:38:00;;;;;;;5.38;4.25;;;;;;;;;;5054194;28;20414;-79
2021/01/27 02:40:28;;;;;;;4.90;4.50;;;;;;;;;;5054090;28;20215;-78
2021/01/27 02:43:07;;;;;;;6.10;4.10;;;;;;;;;;5054185;28;20169;-78
2021/01/27 02:45:36;;;;;;;5.18;4.60;;;;;;;;;;5054181;28;20185;-78
2021/01/27 02:48:31;;;;;;;6.50;4.32;;;;;;;;;;5054146;28;20248;-77
2021/01/27 02:51:00;;;;;;;7.72;4.45;;;;;;;;;;4966272;28;20211;-78
2021/01/27 02:53:30;;;;;;;4.68;4.15;;;;;;;;;;5054124;28;20202;-77
2021/01/27 02:56:02;;;;;;;5.82;4.00;;;;;;;;;;5053811;28;20172;-77
2021/01/27 02:58:32;;;;;;;4.63;4.20;;;;;;;;;;5053793;28;20619;-77
2021/01/27 03:01:03;;;;;;;5.88;4.32;;;;;;;;;;5053293;28;20183;-76
2021/01/27 03:03:36;;;;;;;9.38;4.35;;;;;;;;;;5053582;28;20165;-76
2021/01/27 03:06:05;;;;;;;6.75;4.18;;;;;;;;;;5054012;28;20235;-77
2021/01/27 03:08:33;;;;;;;4.38;3.88;;;;;;;;;;5053725;28;20302;-78
2021/01/27 03:10:59;;;;;;;6.72;3.80;;;;;;;;;;5053363;28;20235;-79
2021/01/27 03:13:25;;;;;;;6.60;4.53;;;;;;;;;;5053589;28;20614;-76
2021/01/27 03:15:52;;;;;;;5.30;4.10;;;;;;;;;;5052621;28;20809;-76
2021/01/27 03:18:21;;;;;;;5.22;3.50;;;;;;;;;;5053685;28;20515;-75
2021/01/27 03:20:48;;;;;;;6.15;3.55;;;;;;;;;;5053446;28;20226;-77
2021/01/27 03:23:21;;;;;;;5.68;3.55;;;;;;;;;;5053595;28;20164;-77
2021/01/27 03:25:58;;;;;;;4.75;4.20;;;;;;;;;;5050512;28;20263;-78
2021/01/27 03:28:24;;;;;;;3.95;3.53;;;;;;;;;;5053277;28;20255;-76
2021/01/27 03:30:51;;;;;;;8.70;4.53;;;;;;;;;;5053217;28;20204;-76
2021/01/27 03:33:36;;;;;;;4.88;3.70;;;;;;;;;;5053309;28;20478;-77
2021/01/27 03:36:04;;;;;;;4.60;4.13;;;;;;;;;;5053164;28;20474;-80
2021/01/27 03:38:30;;;;;;;5.75;3.45;;;;;;;;;;5053096;28;20178;-77
2021/01/27 03:40:58;;;;;;;5.47;3.70;;;;;;;;;;5052850;28;20173;-79
2021/01/27 03:43:29;;;;;;;5.82;4.10;;;;;;;;;;5053067;28;20907;-77
2021/01/27 03:45:59;;;;;;;5.45;3.80;;;;;;;;;;5052936;28;20225;-77
2021/01/27 03:48:36;;;;;;;6.43;3.60;;;;;;;;;;5052964;28;20176;-76
2021/01/27 03:51:02;;;;;;;3.40;2.85;;;;;;;;;;5058168;28;20179;-77
2021/01/27 03:53:30;;;;;;;3.50;2.92;;;;;;;;;;5039813;28;20199;-76
2021/01/27 03:56:05;;;;;;;3.47;3.15;;;;;;;;;;5052880;28;20252;-77
2021/01/27 03:58:33;;;;;;;3.50;3.20;;;;;;;;;;5053070;28;20180;-78
2021/01/27 04:01:01;;;;;;;6.30;3.45;;;;;;;;;;5052490;28;20182;-77
2021/01/27 04:03:27;;;;;;;3.72;2.92;;;;;;;;;;5052905;28;20526;-77
2021/01/27 04:05:53;;;;;;;3.78;3.40;;;;;;;;;;5034804;28;20180;-77
2021/01/27 04:08:19;;;;;;;4.60;3.22;;;;;;;;;;5052754;28;20260;-79
2021/01/27 04:10:45;;;;;;;3.50;3.20;;;;;;;;;;5052335;28;20256;-79
2021/01/27 04:13:11;;;;;;;3.67;2.87;;;;;;;;;;5052652;28;20419;-77
2021/01/27 04:15:37;;;;;;;3.55;2.72;;;;;;;;;;5052552;28;20430;-78
2021/01/27 04:18:03;;;;;;;5.67;2.87;;;;;;;;;;5052453;28;20203;-77
2021/01/27 04:20:29;;;;;;;2.65;2.45;;;;;;;;;;5052360;28;20553;-77
2021/01/27 04:22:55;;;;;;;4.90;3.50;;;;;;;;;;5052526;28;20206;-77
2021/01/27 04:25:21;;;;;;;5.15;3.67;;;;;;;;;;5052433;28;20415;-77
2021/01/27 04:27:47;;;;;;;3.88;2.72;;;;;;;;;;5052220;28;20649;-78
2021/01/27 04:30:15;;;;;;;3.90;3.50;;;;;;;;;;5052430;28;20585;-77
2021/01/27 04:32:41;;;;;;;3.60;2.47;;;;;;;;;;5034732;28;20615;-78
2021/01/27 04:40:57;;;;;;;4.10;3.25;;;;;;;;;;5052653;28;20207;-77
2021/01/27 04:43:28;;;;;;;3.15;2.88;;;;;;;;;;5052346;28;20178;-77
2021/01/27 04:46:14;;;;;;;3.33;2.88;;;;;;;;;;5052625;28;20169;-78
2021/01/27 04:48:47;;;;;;;6.72;3.58;;;;;;;;;;5018122;28;20184;-77
2021/01/27 04:51:16;;;;;;;3.53;3.22;;;;;;;;;;5052283;28;20255;-77
2021/01/27 04:54:04;;;;;;;4.35;3.05;;;;;;;;;;5052314;28;20172;-77
2021/01/27 04:56:42;;;;;;;4.00;3.10;;;;;;;;;;5052335;28;20174;-78
2021/01/27 04:59:13;;;;;;;3.00;2.58;;;;;;;;;;5052360;28;20239;-78
2021/01/27 05:01:58;;;;;;;4.88;2.70;;;;;;;;;;5052295;28;20168;-77
2021/01/27 05:04:27;;;;;;;4.07;2.88;;;;;;;;;;5052327;28;20181;-78
2021/01/27 05:06:55;;;;;;;6.32;3.88;;;;;;;;;;5052148;28;20241;-78
2021/01/27 05:09:39;;;;;;;3.85;3.20;;;;;;;;;;5052122;28;20234;-77
2021/01/27 05:12:07;;;;;;;3.78;2.90;;;;;;;;;;5052063;28;20231;-76
2021/01/27 05:14:33;;;;;;;3.50;3.20;;;;;;;;;;5052083;28;20597;-77
2021/01/27 05:17:02;;;;;;;3.08;2.70;;;;;;;;;;5051979;28;20180;-77
2021/01/27 05:19:28;;;;;;;3.65;2.80;;;;;;;;;;5051960;28;20200;-76
2021/01/27 05:21:56;;;;;;;3.43;3.10;;;;;;;;;;5052170;28;20210;-77
2021/01/27 05:24:22;;;;;;;3.28;2.97;;;;;;;;;;5054818;28;20419;-77
2021/01/27 05:26:59;;;;;;;5.53;3.67;;;;;;;;;;5059052;28;20534;-77
2021/01/27 05:29:43;;;;;;;3.80;3.25;;;;;;;;;;5052667;28;20625;-77
2021/01/27 05:32:20;;;;;;;8.50;2.88;;;;;;;;;;5033868;28;20181;-78
2021/01/27 05:34:47;;;;;;;4.15;2.90;;;;;;;;;;5051962;28;20172;-77
2021/01/27 05:37:15;;;;;;;6.50;2.60;;;;;;;;;;5043914;28;20177;-78
2021/01/27 05:39:41;;;;;;;2.95;2.42;;;;;;;;;;5053108;28;20224;-78
2021/01/27 05:42:27;;;;;;;3.33;2.90;;;;;;;;;;5055313;28;20173;-78
2021/01/27 05:44:53;;;;;;;6.30;4.63;;;;;;;;;;5055223;28;20282;-74
2021/01/27 05:47:25;;;;;;;3.65;2.78;;;;;;;;;;5055311;28;20198;-77
2021/01/27 05:49:52;;;;;;;2.88;2.63;;;;;;;;;;5055074;28;20167;-78
2021/01/27 05:52:19;;;;;;;4.10;3.47;;;;;;;;;;5055015;28;20531;-77
2021/01/27 05:54:45;;;;;;;3.50;2.60;;;;;;;;;;5054828;28;20522;-77
2021/01/27 05:57:25;;;;;;;4.05;3.05;;;;;;;;;;5055298;28;20179;-77
2021/01/27 05:59:52;;;;;;;10.05;2.85;;;;;;;;;;5055127;28;20614;-77
2021/01/27 06:02:18;;;;;;;3.00;2.55;;;;;;;;;;5054927;28;20164;-79
2021/01/27 06:04:54;;;;;;;4.53;2.72;;;;;;;;;;5055266;28;20173;-78
2021/01/27 06:07:27;;;;;;;4.10;3.00;;;;;;;;;;5054747;28;20262;-79
2021/01/27 06:09:54;;;;;;;3.00;2.47;;;;;;;;;;5054332;28;20180;-77
2021/01/27 06:12:20;;;;;;;3.75;3.10;;;;;;;;;;5055139;28;20171;-78
2021/01/27 06:14:46;;;;;;;3.03;2.67;;;;;;;;;;5055223;28;20619;-76
2021/01/27 06:17:24;;;;;;;2.90;2.70;;;;;;;;;;5055321;28;20407;-77
2021/01/27 06:20:05;;;;;;;8.73;3.00;;;;;;;;;;5054611;28;20211;-78
2021/01/27 06:22:48;;;;;;;3.55;2.20;;;;;;;;;;5054409;28;20172;-78
2021/01/27 06:25:23;;;;;;;3.00;2.70;;;;;;;;;;5054263;28;20165;-75
2021/01/27 06:28:01;;;;;;;4.32;2.65;;;;;;;;;;5054418;28;20299;-78
2021/01/27 06:30:30;;;;;;;2.60;2.40;;;;;;;;;;5054166;28;20204;-76
2021/01/27 06:33:19;;;;;;;3.03;2.25;;;;;;;;;;5054743;28;20614;-76
2021/01/27 06:35:53;;;;;;;2.65;2.35;;;;;;;;;;5036600;28;20657;-76
2021/01/27 06:38:19;;;;;;;5.30;3.13;;;;;;;;;;5054510;28;20177;-78
2021/01/27 06:40:51;;;;;;;4.73;2.50;;;;;;;;;;5054391;28;20176;-78
2021/01/27 06:43:17;;;;;;;4.30;2.25;;;;;;;;;;5054449;28;20421;-77
2021/01/27 06:45:55;;;;;;;3.40;2.20;;;;;;;;;;5054302;28;20572;-76
2021/01/27 06:48:32;;;;;;;3.47;2.15;;;;;;;;;;5054382;28;20411;-77
2021/01/27 06:51:04;;;;;;;2.50;2.00;;;;;;;;;;5054302;28;20175;-77
2021/01/27 06:53:41;;;;;;;2.85;2.30;;;;;;;;;;5053971;28;20165;-79
2021/01/27 06:56:10;;;;;;;2.30;2.10;;;;;;;;;;5054143;28;20165;-77
2021/01/27 06:58:49;;;;;;;2.38;2.17;;;;;;;;;;5040294;28;20189;-77
2021/01/27 07:01:15;;;;;;;2.97;1.90;;;;;;;;;;5056835;28;20226;-74
2021/01/27 07:03:44;;;;;;;2.40;2.23;;;;;;;;;;5052585;28;20573;-76
2021/01/27 07:06:30;;;;;;;2.13;1.92;;;;;;;;;;5053186;28;20407;-75
2021/01/27 07:09:07;;;;;;;2.70;2.50;;;;;;;;;;5052919;28;20168;-75
2021/01/27 07:11:57;;;;;;;6.28;3.22;;;;;;;;;;5052662;28;20259;-75
2021/01/27 07:14:32;;;;;;;5.38;2.55;;;;;;;;;;5046305;28;20167;-76
2021/01/27 07:17:09;;;;;;;3.10;2.65;;;;;;;;;;5052863;28;20179;-76
2021/01/27 07:19:38;;;;;;;3.00;2.25;;;;;;;;;;5052937;28;20204;-75
2021/01/27 07:25:16;;;;;;;6.40;2.90;;;;;;;;;;5052582;28;20677;-76
2021/01/27 07:27:48;;;;;;;3.83;2.85;;;;;;;;;;5053038;28;20176;-76
2021/01/27 07:30:20;;;;;;;3.50;2.70;;;;;;;;;;5050631;28;20153;-76
2021/01/27 07:32:55;;;;;;;4.00;2.65;;;;;;;;;;5052509;28;20168;-76
2021/01/27 07:35:28;;;;;;;5.38;3.85;;;;;;;;;;5053178;28;20168;-76
2021/01/27 07:41:06;;;;;;;3.67;2.90;;;;;;;;;;5053679;28;20183;-76
2021/01/27 07:43:32;;;;;;;4.00;2.90;;;;;;;;;;5053454;28;20179;-75
2021/01/27 07:45:59;;;;;;;7.80;4.20;;;;;;;;;;5053262;28;20176;-75
2021/01/27 07:48:25;;;;;;;3.50;2.92;;;;;;;;;;5053491;28;20777;-76
2021/01/27 07:50:57;;;;;;;3.80;3.33;;;;;;;;;;5053309;28;20168;-74
2021/01/27 07:57:02;;;;;;;5.40;3.03;;;;;;;;;;5053327;28;20171;-75
2021/01/27 07:59:28;;;;;;;4.65;3.40;;;;;;;;;;4952406;29;20735;-74
2021/01/27 08:02:24;;;;;;;4.33;3.40;;;;;;;;;;5030954;28;20282;-76
2021/01/27 08:04:55;;;;;;;3.58;2.70;;;;;;;;;;5031605;28;20446;-76
2021/01/27 08:07:30;;;;;;;5.43;3.30;;;;;;;;;;5033474;28;20168;-75
2021/01/27 08:10:05;;;;;;;3.53;3.22;;;;;;;;;;5051626;28;20246;-75
2021/01/27 08:12:34;;;;;;;3.63;3.30;;;;;;;;;;5051979;28;20563;-76
2021/01/27 08:15:03;;;;;;;6.00;4.18;;;;;;;;;;5051327;28;20184;-76
2021/01/27 08:17:45;;;;;;;3.50;3.20;;;;;;;;;;5051858;28;20250;-75
2021/01/27 08:20:17;;;;;;;4.05;2.67;;;;;;;;;;5051479;28;20208;-76
2021/01/27 08:22:57;;;;;;;7.30;3.55;;;;;;;;;;5051824;28;20206;-75
2021/01/27 08:25:41;;;;;;;3.42;3.13;;;;;;;;;;5051438;28;20264;-75
2021/01/27 08:28:16;;;;;;;3.65;3.05;;;;;;;;;;5051333;28;20214;-75
2021/01/27 08:30:42;;;;;;;4.07;3.10;;;;;;;;;;5051649;28;20172;-75
2021/01/27 08:33:27;;;;;;;3.63;3.23;;;;;;;;;;5054719;28;20626;-76
2021/01/27 08:35:53;;;;;;;3.70;3.40;;;;;;;;;;5052936;28;20415;-76
2021/01/27 08:38:26;;;;;;;5.20;4.70;;;;;;;;;;5051509;28;20259;-75
2021/01/27 08:40:52;;;;;;;6.13;3.67;;;;;;;;;;5051406;28;20893;-77
2021/01/27 08:43:19;;;;;;;6.28;4.25;;;;;;;;;;5051388;28;20191;-77
2021/01/27 08:45:46;;;;;;;5.82;3.55;;;;;;;;;;5051247;28;20173;-78
2021/01/27 08:48:14;;;;;;;4.95;4.40;;;;;;;;;;5051367;28;20587;-77
2021/01/27 08:50:52;;;;;;;4.25;3.85;;;;;;;;;;5051505;28;20648;-76
2021/01/27 08:53:24;;;;;;;4.32;3.92;;;;;;;;;;5051426;28;20176;-77
2021/01/27 08:55:50;;;;;;;6.22;4.45;;;;;;;;;;5051057;28;20247;-75
2021/01/27 08:58:25;;;;;;;4.57;3.37;;;;;;;;;;5051418;28;20651;-76
2021/01/27 09:00:53;;;;;;;4.18;3.78;;;;;;;;;;5051263;28;20488;-75
2021/01/27 09:03:37;;;;;;;7.57;4.93;;;;;;;;;;5051183;28;20175;-75
2021/01/27 09:06:04;;;;;;;4.82;3.60;;;;;;;;;;5050813;28;20288;-75
2021/01/27 09:08:32;;;;;;;5.20;4.63;;;;;;;;;;5051120;28;20171;-74
2021/01/27 09:11:03;;;;;;;5.43;4.07;;;;;;;;;;5033084;28;20339;-78
2021/01/27 09:13:33;;;;;;;5.15;3.97;;;;;;;;;;5051057;28;20255;-74
2021/01/27 09:16:03;;;;;;;5.57;4.40;;;;;;;;;;5054491;28;20176;-74
2021/01/27 09:18:29;;;;;;;3.25;3.05;;;;;;;;;;5054796;28;20169;-75
2021/01/27 09:21:03;;;;;;;3.75;3.42;;;;;;;;;;5054774;28;20176;-73
2021/01/27 09:23:29;;;;;;;4.53;3.88;;;;;;;;;;5054855;28;20183;-73
2021/01/27 09:25:55;;;;;;;7.60;3.60;;;;;;;;;;5055058;28;20168;-74
2021/01/27 09:28:23;;;;;;;7.60;3.50;;;;;;;;;;5054955;28;20172;-74
2021/01/27 09:30:49;;;;;;;5.07;3.80;;;;;;;;;;5054001;28;20425;-73
2021/01/27 09:33:17;;;;;;;8.75;3.50;;;;;;;;;;5054613;28;20165;-76
2021/01/27 09:35:44;;;;;;;3.35;3.05;;;;;;;;;;5054320;28;20183;-74
2021/01/27 09:38:12;;;;;;;3.67;2.65;;;;;;;;;;5054246;28;20169;-74
2021/01/27 09:43:44;;;;;;;4.20;3.03;;;;;;;;;;5054800;28;20233;-75
2021/01/27 09:46:31;;;;;;;2.97;2.72;;;;;;;;;;5054197;28;20202;-75
2021/01/27 09:48:59;;;;;;;3.75;2.65;;;;;;;;;;5054045;28;20255;-75
2021/01/27 09:51:26;;;;;;;2.45;2.25;;;;;;;;;;5054148;28;20176;-74
2021/01/27 09:53:56;;;;;;;3.47;3.15;;;;;;;;;;5054026;28;20199;-75
2021/01/27 09:56:23;;;;;;;3.50;3.00;;;;;;;;;;5054337;28;20241;-76
2021/01/27 09:58:49;;;;;;;4.28;2.67;;;;;;;;;;5053934;28;20680;-75
2021/01/27 10:01:17;;;;;;;2.47;2.28;;;;;;;;;;5054122;28;20180;-74
2021/01/27 10:03:44;;;;;;;3.60;2.30;;;;;;;;;;5054129;28;20164;-77
2021/01/27 10:06:29;;;;;;;4.60;2.72;;;;;;;;;;5055096;28;20169;-75
2021/01/27 10:08:57;;;;;;;2.83;2.50;;;;;;;;;;5043037;28;20623;-75
2021/01/27 10:11:30;;;;;;;2.30;2.10;;;;;;;;;;5054716;28;20238;-75
2021/01/27 10:14:00;;;;;;;2.50;2.30;;;;;;;;;;5054866;28;20637;-76
2021/01/27 10:16:26;;;;;;;2.22;2.03;;;;;;;;;;5054859;28;20176;-74
2021/01/27 10:19:00;;;;;;;2.17;1.67;;;;;;;;;;5054781;28;20282;-74
2021/01/27 10:21:26;;;;;;;2.72;2.05;;;;;;;;;;5054885;28;20223;-75
2021/01/27 10:23:52;;;;;;;2.53;1.75;;;;;;;;;;5054480;28;20638;-74
2021/01/27 10:26:21;;;;;;;2.83;2.03;;;;;;;;;;5053953;28;20169;-75
2021/01/27 10:28:47;;;;;;;3.95;1.83;;;;;;;;;;5054830;28;20771;-75
2021/01/27 10:31:33;;;;;;;2.45;1.90;;;;;;;;;;5054367;28;20307;-74
2021/01/27 10:33:59;;;;;;;3.05;2.00;;;;;;;;;;5054448;28;20180;-76
2021/01/27 10:36:35;;;;;;;4.07;2.38;;;;;;;;;;5054235;28;20169;-76
2021/01/27 10:39:15;;;;;;;3.63;2.40;;;;;;;;;;5054200;28;20231;-75
2021/01/27 10:41:41;;;;;;;2.13;2.03;;;;;;;;;;5054350;28;20179;-74
2021/01/27 10:44:27;;;;;;;2.05;1.95;;;;;;;;;;5054038;28;20233;-75
2021/01/27 10:46:54;;;;;;;2.85;2.10;;;;;;;;;;5054419;28;20186;-75
2021/01/27 10:49:20;;;;;;;2.95;2.30;;;;;;;;;;5053962;28;20160;-75
2021/01/27 10:51:47;;;;;;;3.25;2.60;;;;;;;;;;5053917;28;20528;-74
2021/01/27 10:54:17;;;;;;;2.50;1.80;;;;;;;;;;5053966;28;20527;-75
2021/01/27 10:56:43;;;;;;;3.45;2.85;;;;;;;;;;5054044;28;20200;-74
2021/01/27 10:59:09;;;;;;;2.40;2.20;;;;;;;;;;5053432;28;20597;-74
2021/01/27 11:01:34;;;;;;;2.50;2.30;;;;;;;;;;5053625;28;20195;-75
2021/01/27 11:04:00;;;;;;;3.07;2.10;;;;;;;;;;5053818;28;20175;-75
2021/01/27 11:06:26;;;;;;;2.83;2.50;;;;;;;;;;5053087;28;20850;-75
2021/01/27 11:08:53;;;;;;;2.80;2.40;;;;;;;;;;5053483;28;20443;-75
2021/01/27 11:14:22;;;;;;;2.17;1.98;;;;;;;;;;5054003;28;20238;-75
2021/01/27 11:16:48;;;;;;;2.87;2.60;;;;;;;;;;5053235;28;20566;-75
2021/01/27 11:19:14;;;;;;;2.50;2.30;;;;;;;;;;5051969;28;20816;-75
2021/01/27 11:21:40;;;;;;;3.78;3.05;;;;;;;;;;5052913;28;20171;-76
2021/01/27 11:24:07;;;;;;;3.45;1.63;;;;;;;;;;5052289;28;20676;-75
2021/01/27 11:29:36;;;;;;;2.30;2.10;;;;;;;;;;5052589;28;20637;-76
2021/01/27 11:32:02;;;;;;;2.20;1.60;;;;;;;;;;5052599;28;20168;-77
2021/01/27 11:34:28;;;;;;;2.15;1.20;;;;;;;;;;5052032;28;20422;-75
2021/01/27 11:36:54;;;;;;;1.70;1.50;;;;;;;;;;5051405;28;20168;-75
2021/01/27 11:39:23;;;;;;;1.58;1.35;;;;;;;;;;5051929;28;20547;-76
2021/01/27 11:44:53;;;;;;;2.30;2.10;;;;;;;;;;5058016;28;20187;-74
2021/01/27 11:47:19;;;;;;;2.50;1.90;;;;;;;;;;5053084;28;20252;-75
2021/01/27 11:49:46;;;;;;;1.83;1.73;;;;;;;;;;5052102;28;20563;-75
2021/01/27 11:52:12;;;;;;;1.83;1.65;;;;;;;;;;5052272;28;20411;-76
2021/01/27 11:54:39;;;;;;;2.78;2.03;;;;;;;;;;5051915;28;20179;-76
2021/01/27 12:00:09;;;;;;;2.88;1.60;;;;;;;;;;5051797;28;20633;-76
2021/01/27 12:02:42;;;;;;;1.70;1.60;;;;;;;;;;5051974;28;20161;-77
2021/01/27 12:05:09;;;;;;;1.58;1.48;;;;;;;;;;5034689;28;20176;-78
2021/01/27 12:07:35;;;;;;;2.28;1.67;;;;;;;;;;5051950;28;20173;-76
2021/01/27 12:16:08;;;;;;;1.58;1.45;;;;;;;;;;5051930;28;20183;-76
2021/01/27 12:18:34;;;;;;;2.60;1.40;;;;;;;;;;5052664;28;20192;-74
2021/01/27 12:21:00;;;;;;;1.67;1.57;;;;;;;;;;5052435;28;20209;-76
2021/01/27 12:23:26;;;;;;;1.70;1.60;;;;;;;;;;5052818;28;20453;-75
2021/01/27 12:25:51;;;;;;;2.53;1.50;;;;;;;;;;5052329;28;20410;-75
2021/01/27 12:28:17;;;;;;;2.43;1.47;;;;;;;;;;5052451;28;20441;-75
2021/01/27 12:30:44;;;;;;;3.22;1.92;;;;;;;;;;5052282;28;20528;-75
2021/01/27 12:33:10;;;;;;;2.25;1.30;;;;;;;;;;5052652;28;20507;-74
2021/01/27 12:35:36;;;;;;;2.10;1.90;;;;;;;;;;5052783;28;20218;-76
2021/01/27 12:38:02;;;;;;;2.17;1.52;;;;;;;;;;5052094;28;20200;-76
2021/01/27 12:40:29;;;;;;;1.73;1.23;;;;;;;;;;5052110;28;20204;-75
2021/01/27 12:42:55;;;;;;;2.92;1.70;;;;;;;;;;5052255;28;20581;-75
2021/01/27 12:45:22;;;;;;;1.50;1.40;;;;;;;;;;5052233;28;20191;-75
2021/01/27 12:47:48;;;;;;;1.67;1.20;;;;;;;;;;5052610;28;20635;-76
2021/01/27 12:50:14;;;;;;;2.30;1.90;;;;;;;;;;5056279;28;20195;-76
2021/01/27 12:52:41;;;;;;;2.55;1.88;;;;;;;;;;5056545;28;20410;-76
2021/01/27 12:55:10;;;;;;;6.15;1.33;;;;;;;;;;5056051;28;20627;-75
2021/01/27 12:57:36;;;;;;;2.70;1.40;;;;;;;;;;5056060;28;20263;-75
2021/01/27 13:00:04;;;;;;;2.10;1.90;;;;;;;;;;5056042;28;20212;-76
2021/01/27 13:02:30;;;;;;;2.03;1.80;;;;;;;;;;5055834;28;20168;-76
2021/01/27 13:04:57;;;;;;;1.80;1.53;;;;;;;;;;5055784;28;20173;-76
2021/01/27 13:07:23;;;;;;;1.52;1.42;;;;;;;;;;5055965;28;20415;-74
2021/01/27 13:09:49;;;;;;;2.30;2.10;;;;;;;;;;5055127;28;20642;-75
2021/01/27 13:15:20;;;;;;;2.10;1.90;;;;;;;;;;5055938;28;20402;-75
2021/01/27 13:17:47;;;;;;;2.20;1.48;;;;;;;;;;5055788;28;20200;-75
2021/01/27 13:20:14;;;;;;;4.78;2.60;;;;;;;;;;5042084;28;20229;-75
2021/01/27 13:22:40;;;;;;;2.30;1.67;;;;;;;;;;5057026;28;20175;-75
2021/01/27 13:25:07;;;;;;;6.13;2.10;;;;;;;;;;5055503;28;20242;-75
2021/01/27 13:30:37;;;;;;;2.05;1.85;;;;;;;;;;5055869;28;20199;-75
2021/01/27 13:33:07;;;;;;;1.52;1.42;;;;;;;;;;5055383;28;20204;-75
2021/01/27 13:35:33;;;;;;;2.05;1.83;;;;;;;;;;5055526;28;20534;-76
2021/01/27 13:37:59;;;;;;;1.55;1.45;;;;;;;;;;5055541;28;20534;-76
2021/01/27 13:40:26;;;;;;;2.20;2.00;;;;;;;;;;5037003;28;20586;-76
2021/01/27 13:45:55;;;;;;;3.10;2.20;;;;;;;;;;5055450;28;20214;-75
2021/01/27 13:48:21;;;;;;;9.25;2.47;;;;;;;;;;5055490;28;20169;-75
2021/01/27 13:50:48;;;;;;;2.45;1.73;;;;;;;;;;5055101;28;20188;-75
2021/01/27 13:53:14;;;;;;;3.90;2.10;;;;;;;;;;5055430;28;20264;-75
2021/01/27 13:55:40;;;;;;;3.65;2.50;;;;;;;;;;5054887;28;20187;-75
2021/01/27 14:01:09;;;;;;;3.85;2.28;;;;;;;;;;5053402;28;20544;-75
2021/01/27 14:03:35;;;;;;;1.97;1.87;;;;;;;;;;5054375;28;20168;-75
2021/01/27 14:06:03;;;;;;;2.57;2.37;;;;;;;;;;5054257;28;20897;-75
2021/01/27 14:08:29;;;;;;;2.95;2.25;;;;;;;;;;5053971;28;20893;-75
2021/01/27 14:10:55;;;;;;;3.10;2.60;;;;;;;;;;5053380;28;20226;-75
2021/01/27 14:16:25;;;;;;;2.80;2.30;;;;;;;;;;5054006;28;20536;-76
2021/01/27 14:18:51;;;;;;;3.60;2.05;;;;;;;;;;5053874;28;20168;-76
2021/01/27 14:21:18;;;;;;;2.60;2.17;;;;;;;;;;5053993;28;20172;-75
2021/01/27 14:23:44;;;;;;;2.95;2.75;;;;;;;;;;5053672;28;20222;-76
2021/01/27 14:26:11;;;;;;;4.15;2.70;;;;;;;;;;5052986;28;20258;-77
2021/01/27 14:28:37;;;;;;;2.92;2.60;;;;;;;;;;5053142;28;20168;-75
2021/01/27 14:31:04;;;;;;;2.92;2.70;;;;;;;;;;5054064;28;20168;-75
2021/01/27 14:33:30;;;;;;;4.03;2.95;;;;;;;;;;5052795;28;20296;-75
2021/01/27 14:35:56;;;;;;;2.65;2.45;;;;;;;;;;5036188;28;20214;-75
2021/01/27 14:38:25;;;;;;;3.75;3.28;;;;;;;;;;5053883;28;20169;-75
2021/01/27 14:40:52;;;;;;;2.33;2.13;;;;;;;;;;5053558;28;20236;-75
2021/01/27 14:46:21;;;;;;;5.57;3.45;;;;;;;;;;5053593;28;20596;-75
2021/01/27 14:48:47;;;;;;;3.33;3.03;;;;;;;;;;5053719;28;20176;-74
2021/01/27 14:51:13;;;;;;;3.42;3.13;;;;;;;;;;5053774;28;20175;-77
2021/01/27 14:53:39;;;;;;;6.17;3.00;;;;;;;;;;5053529;28;20615;-75
2021/01/27 14:56:05;;;;;;;3.83;3.20;;;;;;;;;;5054644;28;20426;-75
2021/01/27 15:01:35;;;;;;;5.50;3.85;;;;;;;;;;5053786;28;20188;-75
2021/01/27 15:04:01;;;;;;;4.63;3.60;;;;;;;;;;5053336;28;20532;-75
2021/01/27 15:06:27;;;;;;;7.57;3.95;;;;;;;;;;5053268;28;20423;-74
2021/01/27 15:08:53;;;;;;;4.47;3.37;;;;;;;;;;5053050;28;20215;-74
2021/01/27 15:11:19;;;;;;;3.80;3.03;;;;;;;;;;5034474;28;20519;-75
2021/01/27 15:16:48;;;;;;;11.52;3.20;;;;;;;;;;5052955;28;20959;-75
2021/01/27 15:19:14;;;;;;;3.60;3.27;;;;;;;;;;5052973;28;20208;-75
2021/01/27 15:21:40;;;;;;;4.05;3.20;;;;;;;;;;5053359;28;20430;-74
2021/01/27 15:24:07;;;;;;;6.28;3.47;;;;;;;;;;5052489;28;20651;-74
2021/01/27 15:26:33;;;;;;;4.18;3.60;;;;;;;;;;5052715;28;20252;-74
2021/01/27 15:32:03;;;;;;;3.95;3.40;;;;;;;;;;5052562;28;20461;-75
2021/01/27 15:34:29;;;;;;;3.58;3.15;;;;;;;;;;5052417;28;20164;-75
2021/01/27 15:36:55;;;;;;;5.45;4.13;;;;;;;;;;5052826;28;20178;-75
2021/01/27 15:39:21;;;;;;;2.50;2.33;;;;;;;;;;5052411;28;20231;-75
2021/01/27 15:41:47;;;;;;;7.32;3.25;;;;;;;;;;5052532;28;20260;-75
2021/01/27 15:44:16;;;;;;;5.00;4.50;;;;;;;;;;5052384;28;20183;-75
2021/01/27 15:46:42;;;;;;;4.13;3.30;;;;;;;;;;5034634;28;20212;-74
2021/01/27 15:49:08;;;;;;;3.90;3.60;;;;;;;;;;5052502;28;20548;-75
2021/01/27 15:51:34;;;;;;;6.07;4.13;;;;;;;;;;5052349;28;20206;-74
2021/01/27 15:54:00;;;;;;;7.28;4.30;;;;;;;;;;5052343;28;20192;-76
2021/01/27 15:56:26;;;;;;;6.25;4.53;;;;;;;;;;5051757;28;20173;-74
2021/01/27 16:01:56;;;;;;;8.73;5.53;;;;;;;;;;5052000;28;20421;-75
2021/01/27 16:04:22;;;;;;;6.60;5.47;;;;;;;;;;5051817;28;20259;-75
2021/01/27 16:06:48;;;;;;;6.32;5.47;;;;;;;;;;5051739;28;20407;-75
2021/01/27 16:09:15;;;;;;;6.95;5.30;;;;;;;;;;5033411;28;20195;-75
2021/01/27 16:11:42;;;;;;;5.70;5.18;;;;;;;;;;5051374;28;20263;-75
2021/01/27 16:17:11;;;;;;;5.97;4.80;;;;;;;;;;5051893;28;20633;-75
2021/01/27 16:19:37;;;;;;;5.37;4.20;;;;;;;;;;5051417;28;20229;-76
2021/01/27 16:22:03;;;;;;;5.27;4.53;;;;;;;;;;5051643;28;20903;-75
2021/01/27 16:24:29;;;;;;;5.43;4.65;;;;;;;;;;5051406;28;20480;-75
2021/01/27 16:26:55;;;;;;;5.65;4.35;;;;;;;;;;5051690;28;20184;-75